sensor_id;sensor_type;location;lat;lon;timestamp;temperature;humidity
4635;DHT22;2330;48.158;11.816;2023-05-07T00:00:22;12.80;98.50
4635;DHT22;2330;48.158;11.816;2023-05-07T00:02:49;12.70;98.50
4635;DHT22;2330;48.158;11.816;2023-05-07T00:05:16;12.80;98.50
4635;DHT22;2330;48.158;11.816;2023-05-07T00:07:43;12.90;98.50
4635;DHT22;2330;48.158;11.816;2023-05-07T00:10:10;13.00;98.50
4635;DHT22;2330;48.158;11.816;2023-05-07T00:12:40;12.90;98.50
4635;DHT22;2330;48.158;11.816;2023-05-07T00:15:07;12.80;98.50
4635;DHT22;2330;48.158;11.816;2023-05-07T00:17:35;12.90;98.50
4635;DHT22;2330;48.158;11.816;2023-05-07T00:20:03;12.90;98.50
4635;DHT22;2330;48.158;11.816;2023-05-07T00:22:33;13.00;98.50
4635;DHT22;2330;48.158;11.816;2023-05-07T00:25:02;13.00;98.50
4635;DHT22;2330;48.158;11.816;2023-05-07T00:27:29;13.10;98.50
4635;DHT22;2330;48.158;11.816;2023-05-07T00:29:56;13.10;98.50
4635;DHT22;2330;48.158;11.816;2023-05-07T00:32:22;12.90;98.50
4635;DHT22;2330;48.158;11.816;2023-05-07T00:34:49;12.90;98.50
4635;DHT22;2330;48.158;11.816;2023-05-07T00:37:17;12.80;98.50
4635;DHT22;2330;48.158;11.816;2023-05-07T00:39:44;12.60;98.50
4635;DHT22;2330;48.158;11.816;2023-05-07T00:42:10;12.60;98.50
4635;DHT22;2330;48.158;11.816;2023-05-07T00:44:37;12.60;98.50
4635;DHT22;2330;48.158;11.816;2023-05-07T00:47:05;12.70;98.50
4635;DHT22;2330;48.158;11.816;2023-05-07T00:49:40;12.70;98.50
4635;DHT22;2330;48.158;11.816;2023-05-07T00:52:13;12.60;98.50
4635;DHT22;2330;48.158;11.816;2023-05-07T00:54:41;12.50;98.50
4635;DHT22;2330;48.158;11.816;2023-05-07T00:57:09;12.40;98.50
4635;DHT22;2330;48.158;11.816;2023-05-07T00:59:38;12.30;98.50
4635;DHT22;2330;48.158;11.816;2023-05-07T01:02:04;12.10;98.50
4635;DHT22;2330;48.158;11.816;2023-05-07T01:04:31;11.90;98.50
4635;DHT22;2330;48.158;11.816;2023-05-07T01:07:00;11.90;98.50
4635;DHT22;2330;48.158;11.816;2023-05-07T01:09:29;12.10;98.50
4635;DHT22;2330;48.158;11.816;2023-05-07T01:11:56;12.10;98.50
4635;DHT22;2330;48.158;11.816;2023-05-07T01:14:24;12.10;98.50
4635;DHT22;2330;48.158;11.816;2023-05-07T01:16:52;12.20;98.50
4635;DHT22;2330;48.158;11.816;2023-05-07T01:19:20;12.30;98.50
4635;DHT22;2330;48.158;11.816;2023-05-07T01:21:48;12.50;98.50
4635;DHT22;2330;48.158;11.816;2023-05-07T01:24:15;12.50;98.50
4635;DHT22;2330;48.158;11.816;2023-05-07T01:26:43;12.60;98.50
4635;DHT22;2330;48.158;11.816;2023-05-07T01:29:11;12.60;98.50
4635;DHT22;2330;48.158;11.816;2023-05-07T01:31:38;12.60;98.50
4635;DHT22;2330;48.158;11.816;2023-05-07T01:34:08;12.50;98.50
4635;DHT22;2330;48.158;11.816;2023-05-07T01:36:37;12.50;98.50
4635;DHT22;2330;48.158;11.816;2023-05-07T01:39:06;12.20;98.50
4635;DHT22;2330;48.158;11.816;2023-05-07T01:41:33;11.70;98.50
4635;DHT22;2330;48.158;11.816;2023-05-07T01:44:01;11.40;98.50
4635;DHT22;2330;48.158;11.816;2023-05-07T01:46:31;11.30;98.50
4635;DHT22;2330;48.158;11.816;2023-05-07T01:48:59;11.30;98.50
4635;DHT22;2330;48.158;11.816;2023-05-07T01:51:26;11.40;98.50
4635;DHT22;2330;48.158;11.816;2023-05-07T01:53:53;11.40;98.50
4635;DHT22;2330;48.158;11.816;2023-05-07T01:56:20;11.40;98.50
4635;DHT22;2330;48.158;11.816;2023-05-07T01:58:47;11.30;98.50
4635;DHT22;2330;48.158;11.816;2023-05-07T02:01:14;11.30;98.50
4635;DHT22;2330;48.158;11.816;2023-05-07T02:03:41;11.30;98.50
4635;DHT22;2330;48.158;11.816;2023-05-07T02:06:08;11.40;98.50
4635;DHT22;2330;48.158;11.816;2023-05-07T02:08:35;11.40;98.50
4635;DHT22;2330;48.158;11.816;2023-05-07T02:11:02;11.40;98.50
4635;DHT22;2330;48.158;11.816;2023-05-07T02:13:31;11.40;98.50
4635;DHT22;2330;48.158;11.816;2023-05-07T02:15:58;11.40;98.50
4635;DHT22;2330;48.158;11.816;2023-05-07T02:18:25;11.40;98.50
4635;DHT22;2330;48.158;11.816;2023-05-07T02:20:52;11.60;98.50
4635;DHT22;2330;48.158;11.816;2023-05-07T02:23:19;11.70;98.50
4635;DHT22;2330;48.158;11.816;2023-05-07T02:25:45;11.70;98.50
4635;DHT22;2330;48.158;11.816;2023-05-07T02:28:12;11.70;98.50
4635;DHT22;2330;48.158;11.816;2023-05-07T02:30:39;11.70;98.50
4635;DHT22;2330;48.158;11.816;2023-05-07T02:33:06;11.50;98.50
4635;DHT22;2330;48.158;11.816;2023-05-07T02:35:35;11.30;98.50
4635;DHT22;2330;48.158;11.816;2023-05-07T02:38:01;11.20;98.50
4635;DHT22;2330;48.158;11.816;2023-05-07T02:40:29;11.20;98.50
4635;DHT22;2330;48.158;11.816;2023-05-07T02:42:56;11.20;98.50
4635;DHT22;2330;48.158;11.816;2023-05-07T02:45:22;11.10;98.50
4635;DHT22;2330;48.158;11.816;2023-05-07T02:47:49;11.10;98.50
4635;DHT22;2330;48.158;11.816;2023-05-07T02:50:16;11.10;98.50
4635;DHT22;2330;48.158;11.816;2023-05-07T02:52:43;11.00;98.50
4635;DHT22;2330;48.158;11.816;2023-05-07T02:55:09;11.00;98.50
4635;DHT22;2330;48.158;11.816;2023-05-07T02:57:37;11.10;98.50
4635;DHT22;2330;48.158;11.816;2023-05-07T03:00:14;11.20;98.50
4635;DHT22;2330;48.158;11.816;2023-05-07T03:02:41;11.40;98.50
4635;DHT22;2330;48.158;11.816;2023-05-07T03:05:08;11.50;98.50
4635;DHT22;2330;48.158;11.816;2023-05-07T03:07:36;11.60;98.50
4635;DHT22;2330;48.158;11.816;2023-05-07T03:10:03;11.50;98.50
4635;DHT22;2330;48.158;11.816;2023-05-07T03:12:30;11.30;98.50
4635;DHT22;2330;48.158;11.816;2023-05-07T03:14:57;11.30;98.50
4635;DHT22;2330;48.158;11.816;2023-05-07T03:17:24;11.30;98.50
4635;DHT22;2330;48.158;11.816;2023-05-07T03:19:51;11.20;98.50
4635;DHT22;2330;48.158;11.816;2023-05-07T03:22:17;11.10;98.50
4635;DHT22;2330;48.158;11.816;2023-05-07T03:24:44;11.20;98.50
4635;DHT22;2330;48.158;11.816;2023-05-07T03:27:11;11.20;98.50
4635;DHT22;2330;48.158;11.816;2023-05-07T03:29:38;11.20;98.50
4635;DHT22;2330;48.158;11.816;2023-05-07T03:32:04;11.30;98.50
4635;DHT22;2330;48.158;11.816;2023-05-07T03:34:32;11.40;98.50
4635;DHT22;2330;48.158;11.816;2023-05-07T03:36:59;11.50;98.50
4635;DHT22;2330;48.158;11.816;2023-05-07T03:39:26;11.60;98.50
4635;DHT22;2330;48.158;11.816;2023-05-07T03:41:53;11.60;98.50
4635;DHT22;2330;48.158;11.816;2023-05-07T03:44:19;11.60;98.50
4635;DHT22;2330;48.158;11.816;2023-05-07T03:46:46;11.60;98.50
4635;DHT22;2330;48.158;11.816;2023-05-07T03:49:13;11.60;98.50
4635;DHT22;2330;48.158;11.816;2023-05-07T03:51:40;11.60;98.50
4635;DHT22;2330;48.158;11.816;2023-05-07T03:54:07;11.60;98.50
4635;DHT22;2330;48.158;11.816;2023-05-07T03:56:34;11.50;98.50
4635;DHT22;2330;48.158;11.816;2023-05-07T03:59:01;11.50;98.50
4635;DHT22;2330;48.158;11.816;2023-05-07T04:01:28;11.60;98.50
4635;DHT22;2330;48.158;11.816;2023-05-07T04:03:55;11.60;98.50
4635;DHT22;2330;48.158;11.816;2023-05-07T04:06:22;11.80;98.50
4635;DHT22;2330;48.158;11.816;2023-05-07T04:08:49;11.90;98.50
4635;DHT22;2330;48.158;11.816;2023-05-07T04:11:16;11.80;98.50
4635;DHT22;2330;48.158;11.816;2023-05-07T04:13:43;11.80;98.50
4635;DHT22;2330;48.158;11.816;2023-05-07T04:16:09;11.80;98.50
4635;DHT22;2330;48.158;11.816;2023-05-07T04:18:36;11.80;98.50
4635;DHT22;2330;48.158;11.816;2023-05-07T04:21:03;11.70;98.50
4635;DHT22;2330;48.158;11.816;2023-05-07T04:23:30;11.70;98.50
4635;DHT22;2330;48.158;11.816;2023-05-07T04:25:56;11.70;98.50
4635;DHT22;2330;48.158;11.816;2023-05-07T04:28:24;11.70;98.50
4635;DHT22;2330;48.158;11.816;2023-05-07T04:30:50;11.80;98.50
4635;DHT22;2330;48.158;11.816;2023-05-07T04:33:17;11.90;98.50
4635;DHT22;2330;48.158;11.816;2023-05-07T04:35:44;11.90;98.50
4635;DHT22;2330;48.158;11.816;2023-05-07T04:38:11;11.90;98.50
4635;DHT22;2330;48.158;11.816;2023-05-07T04:40:38;11.90;98.50
4635;DHT22;2330;48.158;11.816;2023-05-07T04:43:05;11.90;98.50
4635;DHT22;2330;48.158;11.816;2023-05-07T04:45:32;11.90;98.50
4635;DHT22;2330;48.158;11.816;2023-05-07T04:47:59;11.90;98.50
4635;DHT22;2330;48.158;11.816;2023-05-07T04:50:25;12.00;98.50
4635;DHT22;2330;48.158;11.816;2023-05-07T04:52:53;12.10;98.50
4635;DHT22;2330;48.158;11.816;2023-05-07T04:55:19;12.20;98.50
4635;DHT22;2330;48.158;11.816;2023-05-07T04:57:46;12.30;98.50
4635;DHT22;2330;48.158;11.816;2023-05-07T05:00:14;12.20;98.50
4635;DHT22;2330;48.158;11.816;2023-05-07T05:02:41;12.40;98.50
4635;DHT22;2330;48.158;11.816;2023-05-07T05:05:08;12.40;98.50
4635;DHT22;2330;48.158;11.816;2023-05-07T05:07:34;12.50;98.50
4635;DHT22;2330;48.158;11.816;2023-05-07T05:10:02;12.50;98.50
4635;DHT22;2330;48.158;11.816;2023-05-07T05:12:29;12.50;98.50
4635;DHT22;2330;48.158;11.816;2023-05-07T05:14:57;12.70;98.50
4635;DHT22;2330;48.158;11.816;2023-05-07T05:17:23;12.90;98.50
4635;DHT22;2330;48.158;11.816;2023-05-07T05:19:50;13.40;98.50
4635;DHT22;2330;48.158;11.816;2023-05-07T05:22:17;13.50;98.50
4635;DHT22;2330;48.158;11.816;2023-05-07T05:24:44;13.30;98.50
4635;DHT22;2330;48.158;11.816;2023-05-07T05:27:11;13.30;98.50
4635;DHT22;2330;48.158;11.816;2023-05-07T05:29:37;13.50;98.50
4635;DHT22;2330;48.158;11.816;2023-05-07T05:32:04;14.00;98.50
4635;DHT22;2330;48.158;11.816;2023-05-07T05:34:31;14.20;98.50
4635;DHT22;2330;48.158;11.816;2023-05-07T05:36:59;14.40;98.50
4635;DHT22;2330;48.158;11.816;2023-05-07T05:39:26;14.40;98.50
4635;DHT22;2330;48.158;11.816;2023-05-07T05:41:53;14.30;98.50
4635;DHT22;2330;48.158;11.816;2023-05-07T05:44:19;14.20;98.50
4635;DHT22;2330;48.158;11.816;2023-05-07T05:46:46;14.40;98.50
4635;DHT22;2330;48.158;11.816;2023-05-07T05:49:13;14.40;98.50
4635;DHT22;2330;48.158;11.816;2023-05-07T05:51:40;14.60;98.50
4635;DHT22;2330;48.158;11.816;2023-05-07T05:54:06;15.10;98.50
4635;DHT22;2330;48.158;11.816;2023-05-07T05:56:33;15.40;98.50
4635;DHT22;2330;48.158;11.816;2023-05-07T05:59:00;15.40;98.50
4635;DHT22;2330;48.158;11.816;2023-05-07T06:01:27;15.40;98.50
4635;DHT22;2330;48.158;11.816;2023-05-07T06:03:54;15.80;98.50
4635;DHT22;2330;48.158;11.816;2023-05-07T06:06:20;16.20;98.50
4635;DHT22;2330;48.158;11.816;2023-05-07T06:08:47;16.30;98.50
4635;DHT22;2330;48.158;11.816;2023-05-07T06:11:14;16.60;98.50
4635;DHT22;2330;48.158;11.816;2023-05-07T06:13:41;16.90;98.50
4635;DHT22;2330;48.158;11.816;2023-05-07T06:16:07;16.80;98.50
4635;DHT22;2330;48.158;11.816;2023-05-07T06:18:34;17.20;98.50
4635;DHT22;2330;48.158;11.816;2023-05-07T06:21:02;17.50;98.50
4635;DHT22;2330;48.158;11.816;2023-05-07T06:23:29;17.40;98.50
4635;DHT22;2330;48.158;11.816;2023-05-07T06:25:56;17.60;98.50
4635;DHT22;2330;48.158;11.816;2023-05-07T06:28:22;17.90;98.50
4635;DHT22;2330;48.158;11.816;2023-05-07T06:30:49;18.00;98.50
4635;DHT22;2330;48.158;11.816;2023-05-07T06:33:16;18.20;98.50
4635;DHT22;2330;48.158;11.816;2023-05-07T06:35:43;18.10;98.50
4635;DHT22;2330;48.158;11.816;2023-05-07T06:38:09;18.10;98.50
4635;DHT22;2330;48.158;11.816;2023-05-07T06:40:37;18.10;98.50
4635;DHT22;2330;48.158;11.816;2023-05-07T06:43:03;18.30;98.50
4635;DHT22;2330;48.158;11.816;2023-05-07T06:45:30;18.40;98.50
4635;DHT22;2330;48.158;11.816;2023-05-07T06:47:57;18.50;98.50
4635;DHT22;2330;48.158;11.816;2023-05-07T06:50:24;18.90;98.50
4635;DHT22;2330;48.158;11.816;2023-05-07T06:52:50;19.00;98.50
4635;DHT22;2330;48.158;11.816;2023-05-07T06:55:17;19.20;98.50
4635;DHT22;2330;48.158;11.816;2023-05-07T06:57:45;19.00;98.50
4635;DHT22;2330;48.158;11.816;2023-05-07T07:00:12;18.80;98.50
4635;DHT22;2330;48.158;11.816;2023-05-07T07:02:39;18.90;98.50
4635;DHT22;2330;48.158;11.816;2023-05-07T07:05:07;18.40;98.50
4635;DHT22;2330;48.158;11.816;2023-05-07T07:07:34;18.70;98.50
4635;DHT22;2330;48.158;11.816;2023-05-07T07:10:00;19.00;98.50
4635;DHT22;2330;48.158;11.816;2023-05-07T07:12:27;19.60;98.50
4635;DHT22;2330;48.158;11.816;2023-05-07T07:14:55;20.10;98.50
4635;DHT22;2330;48.158;11.816;2023-05-07T07:17:22;20.10;98.50
4635;DHT22;2330;48.158;11.816;2023-05-07T07:19:48;20.60;98.50
4635;DHT22;2330;48.158;11.816;2023-05-07T07:22:15;20.70;98.30
4635;DHT22;2330;48.158;11.816;2023-05-07T07:24:42;20.50;96.50
4635;DHT22;2330;48.158;11.816;2023-05-07T07:27:08;19.50;98.50
4635;DHT22;2330;48.158;11.816;2023-05-07T07:29:35;19.40;98.50
4635;DHT22;2330;48.158;11.816;2023-05-07T07:32:02;20.10;98.50
4635;DHT22;2330;48.158;11.816;2023-05-07T07:34:29;20.70;98.50
4635;DHT22;2330;48.158;11.816;2023-05-07T07:36:56;21.10;98.30
4635;DHT22;2330;48.158;11.816;2023-05-07T07:39:23;21.40;96.50
4635;DHT22;2330;48.158;11.816;2023-05-07T07:41:50;20.90;98.00
4635;DHT22;2330;48.158;11.816;2023-05-07T07:44:16;21.20;98.50
4635;DHT22;2330;48.158;11.816;2023-05-07T07:46:43;21.30;98.00
4635;DHT22;2330;48.158;11.816;2023-05-07T07:49:10;21.10;98.40
4635;DHT22;2330;48.158;11.816;2023-05-07T07:51:37;21.30;98.40
4635;DHT22;2330;48.158;11.816;2023-05-07T07:54:04;21.70;96.50
4635;DHT22;2330;48.158;11.816;2023-05-07T07:56:32;21.40;95.90
4635;DHT22;2330;48.158;11.816;2023-05-07T07:59:00;21.60;94.60
4635;DHT22;2330;48.158;11.816;2023-05-07T08:01:29;21.90;96.20
4635;DHT22;2330;48.158;11.816;2023-05-07T08:03:56;21.80;96.10
4635;DHT22;2330;48.158;11.816;2023-05-07T08:06:25;22.10;96.20
4635;DHT22;2330;48.158;11.816;2023-05-07T08:08:55;22.30;94.80
4635;DHT22;2330;48.158;11.816;2023-05-07T08:11:21;22.50;92.50
4635;DHT22;2330;48.158;11.816;2023-05-07T08:13:48;22.30;94.10
4635;DHT22;2330;48.158;11.816;2023-05-07T08:16:15;21.70;94.60
4635;DHT22;2330;48.158;11.816;2023-05-07T08:18:42;21.60;93.90
4635;DHT22;2330;48.158;11.816;2023-05-07T08:21:08;21.60;91.90
4635;DHT22;2330;48.158;11.816;2023-05-07T08:23:35;21.70;94.10
4635;DHT22;2330;48.158;11.816;2023-05-07T08:26:02;21.20;91.60
4635;DHT22;2330;48.158;11.816;2023-05-07T08:28:28;21.40;92.10
4635;DHT22;2330;48.158;11.816;2023-05-07T08:30:55;21.50;93.20
4635;DHT22;2330;48.158;11.816;2023-05-07T08:33:23;21.70;93.70
4635;DHT22;2330;48.158;11.816;2023-05-07T08:35:49;22.10;93.40
4635;DHT22;2330;48.158;11.816;2023-05-07T08:38:16;22.10;92.20
4635;DHT22;2330;48.158;11.816;2023-05-07T08:40:43;22.30;91.50
4635;DHT22;2330;48.158;11.816;2023-05-07T08:43:13;22.40;92.80
4635;DHT22;2330;48.158;11.816;2023-05-07T08:45:41;22.30;93.30
4635;DHT22;2330;48.158;11.816;2023-05-07T08:48:16;22.30;93.30
4635;DHT22;2330;48.158;11.816;2023-05-07T08:50:43;22.00;93.50
4635;DHT22;2330;48.158;11.816;2023-05-07T08:53:10;22.00;94.50
4635;DHT22;2330;48.158;11.816;2023-05-07T08:55:36;22.20;93.80
4635;DHT22;2330;48.158;11.816;2023-05-07T08:58:03;22.30;93.70
4635;DHT22;2330;48.158;11.816;2023-05-07T09:00:30;22.60;92.20
4635;DHT22;2330;48.158;11.816;2023-05-07T09:02:57;22.70;89.20
4635;DHT22;2330;48.158;11.816;2023-05-07T09:05:24;22.70;90.30
4635;DHT22;2330;48.158;11.816;2023-05-07T09:07:50;22.80;89.10
4635;DHT22;2330;48.158;11.816;2023-05-07T09:10:20;22.80;89.10
4635;DHT22;2330;48.158;11.816;2023-05-07T09:12:47;23.10;89.00
4635;DHT22;2330;48.158;11.816;2023-05-07T09:15:14;23.30;88.80
4635;DHT22;2330;48.158;11.816;2023-05-07T09:17:41;23.20;91.60
4635;DHT22;2330;48.158;11.816;2023-05-07T09:20:09;23.30;90.10
4635;DHT22;2330;48.158;11.816;2023-05-07T09:22:37;23.20;88.00
4635;DHT22;2330;48.158;11.816;2023-05-07T09:25:09;23.30;88.00
4635;DHT22;2330;48.158;11.816;2023-05-07T09:27:37;23.10;88.90
4635;DHT22;2330;48.158;11.816;2023-05-07T09:30:07;23.10;89.00
4635;DHT22;2330;48.158;11.816;2023-05-07T09:32:37;23.40;86.50
4635;DHT22;2330;48.158;11.816;2023-05-07T09:35:05;23.40;87.90
4635;DHT22;2330;48.158;11.816;2023-05-07T09:37:32;23.30;87.20
4635;DHT22;2330;48.158;11.816;2023-05-07T09:39:59;23.40;85.20
4635;DHT22;2330;48.158;11.816;2023-05-07T09:42:26;23.50;86.30
4635;DHT22;2330;48.158;11.816;2023-05-07T09:44:53;23.70;86.50
4635;DHT22;2330;48.158;11.816;2023-05-07T09:47:20;23.70;85.50
4635;DHT22;2330;48.158;11.816;2023-05-07T09:49:50;23.70;85.70
4635;DHT22;2330;48.158;11.816;2023-05-07T09:52:19;23.70;85.50
4635;DHT22;2330;48.158;11.816;2023-05-07T09:54:47;23.60;85.10
4635;DHT22;2330;48.158;11.816;2023-05-07T09:57:16;23.60;84.40
4635;DHT22;2330;48.158;11.816;2023-05-07T09:59:46;23.60;85.20
4635;DHT22;2330;48.158;11.816;2023-05-07T10:02:14;23.70;86.40
4635;DHT22;2330;48.158;11.816;2023-05-07T10:04:42;23.40;85.90
4635;DHT22;2330;48.158;11.816;2023-05-07T10:07:09;23.30;86.60
4635;DHT22;2330;48.158;11.816;2023-05-07T10:09:37;23.60;84.90
4635;DHT22;2330;48.158;11.816;2023-05-07T10:12:06;23.50;82.40
4635;DHT22;2330;48.158;11.816;2023-05-07T10:14:33;23.60;81.80
4635;DHT22;2330;48.158;11.816;2023-05-07T10:17:02;23.50;81.70
4635;DHT22;2330;48.158;11.816;2023-05-07T10:19:29;23.40;84.50
4635;DHT22;2330;48.158;11.816;2023-05-07T10:22:03;23.30;85.00
4635;DHT22;2330;48.158;11.816;2023-05-07T10:24:35;23.30;84.90
4635;DHT22;2330;48.158;11.816;2023-05-07T10:27:11;23.50;80.50
4635;DHT22;2330;48.158;11.816;2023-05-07T10:32:48;23.20;84.30
4635;DHT22;2330;48.158;11.816;2023-05-07T10:35:29;23.40;87.90
4635;DHT22;2330;48.158;11.816;2023-05-07T10:37:58;23.50;86.60
4635;DHT22;2330;48.158;11.816;2023-05-07T10:40:25;23.40;87.90
4635;DHT22;2330;48.158;11.816;2023-05-07T10:42:59;23.00;88.00
4635;DHT22;2330;48.158;11.816;2023-05-07T10:45:27;22.80;91.20
4635;DHT22;2330;48.158;11.816;2023-05-07T10:48:13;22.80;90.00
4635;DHT22;2330;48.158;11.816;2023-05-07T10:50:44;23.00;89.80
4635;DHT22;2330;48.158;11.816;2023-05-07T10:55:47;22.90;89.70
4635;DHT22;2330;48.158;11.816;2023-05-07T10:58:29;23.20;89.60
4635;DHT22;2330;48.158;11.816;2023-05-07T11:01:02;23.00;87.20
4635;DHT22;2330;48.158;11.816;2023-05-07T11:03:29;23.30;89.20
4635;DHT22;2330;48.158;11.816;2023-05-07T11:06:16;23.50;88.50
4635;DHT22;2330;48.158;11.816;2023-05-07T11:08:56;23.10;88.30
4635;DHT22;2330;48.158;11.816;2023-05-07T11:11:43;23.40;87.60
4635;DHT22;2330;48.158;11.816;2023-05-07T11:17:05;24.20;83.70
4635;DHT22;2330;48.158;11.816;2023-05-07T11:19:55;24.20;85.60
4635;DHT22;2330;48.158;11.816;2023-05-07T11:25:00;24.20;85.00
4635;DHT22;2330;48.158;11.816;2023-05-07T11:27:27;24.00;86.60
4635;DHT22;2330;48.158;11.816;2023-05-07T11:29:53;23.80;85.90
4635;DHT22;2330;48.158;11.816;2023-05-07T11:32:27;23.50;86.50
4635;DHT22;2330;48.158;11.816;2023-05-07T11:34:57;23.90;86.70
4635;DHT22;2330;48.158;11.816;2023-05-07T11:37:25;23.50;85.90
4635;DHT22;2330;48.158;11.816;2023-05-07T11:40:04;23.60;88.20
4635;DHT22;2330;48.158;11.816;2023-05-07T11:42:37;23.70;87.00
4635;DHT22;2330;48.158;11.816;2023-05-07T11:45:05;23.70;86.10
4635;DHT22;2330;48.158;11.816;2023-05-07T11:47:33;23.70;86.40
4635;DHT22;2330;48.158;11.816;2023-05-07T11:50:05;23.90;85.10
4635;DHT22;2330;48.158;11.816;2023-05-07T11:52:34;24.10;85.80
4635;DHT22;2330;48.158;11.816;2023-05-07T11:55:02;24.00;85.90
4635;DHT22;2330;48.158;11.816;2023-05-07T11:57:30;24.20;84.90
4635;DHT22;2330;48.158;11.816;2023-05-07T11:59:59;23.80;84.90
4635;DHT22;2330;48.158;11.816;2023-05-07T12:02:28;23.70;85.80
4635;DHT22;2330;48.158;11.816;2023-05-07T12:04:56;23.90;85.60
4635;DHT22;2330;48.158;11.816;2023-05-07T12:07:24;24.10;83.80
4635;DHT22;2330;48.158;11.816;2023-05-07T12:09:53;24.00;84.90
4635;DHT22;2330;48.158;11.816;2023-05-07T12:12:20;24.40;83.80
4635;DHT22;2330;48.158;11.816;2023-05-07T12:14:48;24.70;82.10
4635;DHT22;2330;48.158;11.816;2023-05-07T12:17:15;24.80;81.30
4635;DHT22;2330;48.158;11.816;2023-05-07T12:19:44;24.90;83.10
4635;DHT22;2330;48.158;11.816;2023-05-07T12:22:12;25.20;82.00
4635;DHT22;2330;48.158;11.816;2023-05-07T12:24:46;25.10;81.00
4635;DHT22;2330;48.158;11.816;2023-05-07T12:27:14;25.40;80.00
4635;DHT22;2330;48.158;11.816;2023-05-07T12:29:48;25.60;79.20
4635;DHT22;2330;48.158;11.816;2023-05-07T12:32:19;25.90;78.60
4635;DHT22;2330;48.158;11.816;2023-05-07T12:34:49;25.20;79.30
4635;DHT22;2330;48.158;11.816;2023-05-07T12:37:16;24.50;81.10
4635;DHT22;2330;48.158;11.816;2023-05-07T12:40:02;24.60;80.10
4635;DHT22;2330;48.158;11.816;2023-05-07T12:42:36;24.70;80.30
4635;DHT22;2330;48.158;11.816;2023-05-07T12:45:10;24.00;79.70
4635;DHT22;2330;48.158;11.816;2023-05-07T12:47:37;24.00;80.70
4635;DHT22;2330;48.158;11.816;2023-05-07T12:50:06;24.30;80.50
4635;DHT22;2330;48.158;11.816;2023-05-07T12:52:33;24.50;79.50
4635;DHT22;2330;48.158;11.816;2023-05-07T12:55:07;24.50;80.30
4635;DHT22;2330;48.158;11.816;2023-05-07T12:57:48;24.80;78.50
4635;DHT22;2330;48.158;11.816;2023-05-07T13:00:15;24.60;79.70
4635;DHT22;2330;48.158;11.816;2023-05-07T13:02:43;24.50;77.50
4635;DHT22;2330;48.158;11.816;2023-05-07T13:05:11;24.30;79.10
4635;DHT22;2330;48.158;11.816;2023-05-07T13:07:39;24.10;79.10
4635;DHT22;2330;48.158;11.816;2023-05-07T13:10:07;24.40;77.80
4635;DHT22;2330;48.158;11.816;2023-05-07T13:12:34;24.60;76.90
4635;DHT22;2330;48.158;11.816;2023-05-07T13:15:01;24.50;77.00
4635;DHT22;2330;48.158;11.816;2023-05-07T13:17:28;24.40;76.20
4635;DHT22;2330;48.158;11.816;2023-05-07T13:19:55;24.30;79.00
4635;DHT22;2330;48.158;11.816;2023-05-07T13:22:21;24.50;77.20
4635;DHT22;2330;48.158;11.816;2023-05-07T13:24:48;24.60;78.00
4635;DHT22;2330;48.158;11.816;2023-05-07T13:27:15;24.90;77.80
4635;DHT22;2330;48.158;11.816;2023-05-07T13:29:42;24.90;78.50
4635;DHT22;2330;48.158;11.816;2023-05-07T13:32:09;25.00;79.30
4635;DHT22;2330;48.158;11.816;2023-05-07T13:34:36;25.30;77.70
4635;DHT22;2330;48.158;11.816;2023-05-07T13:37:03;24.90;76.00
4635;DHT22;2330;48.158;11.816;2023-05-07T13:39:30;23.90;77.70
4635;DHT22;2330;48.158;11.816;2023-05-07T13:41:57;24.40;79.10
4635;DHT22;2330;48.158;11.816;2023-05-07T13:44:23;23.90;77.80
4635;DHT22;2330;48.158;11.816;2023-05-07T13:46:50;24.30;79.10
4635;DHT22;2330;48.158;11.816;2023-05-07T13:49:17;24.60;78.90
4635;DHT22;2330;48.158;11.816;2023-05-07T13:51:44;24.90;80.10
4635;DHT22;2330;48.158;11.816;2023-05-07T13:54:11;25.00;80.60
4635;DHT22;2330;48.158;11.816;2023-05-07T13:56:39;25.20;76.80
4635;DHT22;2330;48.158;11.816;2023-05-07T13:59:06;24.80;77.40
4635;DHT22;2330;48.158;11.816;2023-05-07T14:01:32;24.70;80.10
4635;DHT22;2330;48.158;11.816;2023-05-07T14:03:59;24.80;79.70
4635;DHT22;2330;48.158;11.816;2023-05-07T14:06:26;25.10;81.70
4635;DHT22;2330;48.158;11.816;2023-05-07T14:08:53;25.10;82.10
4635;DHT22;2330;48.158;11.816;2023-05-07T14:11:20;24.70;80.80
4635;DHT22;2330;48.158;11.816;2023-05-07T14:13:47;24.80;78.70
4635;DHT22;2330;48.158;11.816;2023-05-07T14:16:15;24.70;79.60
4635;DHT22;2330;48.158;11.816;2023-05-07T14:18:42;24.80;78.50
4635;DHT22;2330;48.158;11.816;2023-05-07T14:21:09;24.90;80.70
4635;DHT22;2330;48.158;11.816;2023-05-07T14:23:38;25.00;79.90
4635;DHT22;2330;48.158;11.816;2023-05-07T14:26:05;25.40;79.70
4635;DHT22;2330;48.158;11.816;2023-05-07T14:28:32;25.60;77.70
4635;DHT22;2330;48.158;11.816;2023-05-07T14:30:58;25.40;80.10
4635;DHT22;2330;48.158;11.816;2023-05-07T14:33:26;25.40;78.80
4635;DHT22;2330;48.158;11.816;2023-05-07T14:35:53;25.70;78.90
4635;DHT22;2330;48.158;11.816;2023-05-07T14:38:19;25.10;77.90
4635;DHT22;2330;48.158;11.816;2023-05-07T14:40:46;24.30;78.20
4635;DHT22;2330;48.158;11.816;2023-05-07T14:43:13;24.40;79.20
4635;DHT22;2330;48.158;11.816;2023-05-07T14:45:40;24.40;80.00
4635;DHT22;2330;48.158;11.816;2023-05-07T14:48:07;24.40;79.90
4635;DHT22;2330;48.158;11.816;2023-05-07T14:50:35;24.30;80.30
4635;DHT22;2330;48.158;11.816;2023-05-07T14:53:02;23.90;80.90
4635;DHT22;2330;48.158;11.816;2023-05-07T14:55:30;23.70;81.40
4635;DHT22;2330;48.158;11.816;2023-05-07T14:57:59;23.50;81.60
4635;DHT22;2330;48.158;11.816;2023-05-07T15:00:25;23.50;80.70
4635;DHT22;2330;48.158;11.816;2023-05-07T15:02:52;23.40;80.90
4635;DHT22;2330;48.158;11.816;2023-05-07T15:05:19;23.30;82.30
4635;DHT22;2330;48.158;11.816;2023-05-07T15:07:46;23.30;83.00
4635;DHT22;2330;48.158;11.816;2023-05-07T15:10:13;23.40;83.30
4635;DHT22;2330;48.158;11.816;2023-05-07T15:12:40;23.50;85.00
4635;DHT22;2330;48.158;11.816;2023-05-07T15:15:07;23.40;81.10
4635;DHT22;2330;48.158;11.816;2023-05-07T15:17:34;23.30;83.00
4635;DHT22;2330;48.158;11.816;2023-05-07T15:20:01;23.10;82.50
4635;DHT22;2330;48.158;11.816;2023-05-07T15:22:27;22.90;84.10
4635;DHT22;2330;48.158;11.816;2023-05-07T15:24:54;22.80;82.70
4635;DHT22;2330;48.158;11.816;2023-05-07T15:27:23;22.70;82.20
4635;DHT22;2330;48.158;11.816;2023-05-07T15:29:49;22.60;83.60
4635;DHT22;2330;48.158;11.816;2023-05-07T15:32:16;22.40;83.90
4635;DHT22;2330;48.158;11.816;2023-05-07T15:34:43;22.40;84.20
4635;DHT22;2330;48.158;11.816;2023-05-07T15:37:10;22.30;84.60
4635;DHT22;2330;48.158;11.816;2023-05-07T15:39:37;22.40;84.40
4635;DHT22;2330;48.158;11.816;2023-05-07T15:42:03;22.30;84.20
4635;DHT22;2330;48.158;11.816;2023-05-07T15:44:30;22.40;83.20
4635;DHT22;2330;48.158;11.816;2023-05-07T15:47:01;22.50;83.40
4635;DHT22;2330;48.158;11.816;2023-05-07T15:49:27;22.60;84.70
4635;DHT22;2330;48.158;11.816;2023-05-07T15:51:54;22.50;84.80
4635;DHT22;2330;48.158;11.816;2023-05-07T15:54:21;22.40;83.10
4635;DHT22;2330;48.158;11.816;2023-05-07T15:56:49;22.40;84.90
4635;DHT22;2330;48.158;11.816;2023-05-07T15:59:16;22.30;83.00